sensor_id;sensor_type;location;lat;lon;timestamp;P1;durP1;ratioP1;P2;durP2;ratioP2
81801;SDS011;71199;52.490;5.448;2023-08-07T00:00:21;11.15;;;2.30;;
81801;SDS011;71199;52.490;5.448;2023-08-07T00:02:47;7.15;;;2.25;;
81801;SDS011;71199;52.490;5.448;2023-08-07T00:05:12;9.48;;;2.38;;
81801;SDS011;71199;52.490;5.448;2023-08-07T00:07:38;12.60;;;2.58;;
81801;SDS011;71199;52.490;5.448;2023-08-07T00:10:03;11.32;;;2.60;;
81801;SDS011;71199;52.490;5.448;2023-08-07T00:12:29;13.23;;;2.75;;
81801;SDS011;71199;52.490;5.448;2023-08-07T00:14:55;13.30;;;3.27;;
81801;SDS011;71199;52.490;5.448;2023-08-07T00:17:20;8.73;;;2.40;;
81801;SDS011;71199;52.490;5.448;2023-08-07T00:19:45;9.70;;;2.50;;
81801;SDS011;71199;52.490;5.448;2023-08-07T00:22:11;10.23;;;2.30;;
81801;SDS011;71199;52.490;5.448;2023-08-07T00:24:36;8.40;;;2.40;;
81801;SDS011;71199;52.490;5.448;2023-08-07T00:27:01;8.17;;;2.07;;
81801;SDS011;71199;52.490;5.448;2023-08-07T00:29:28;5.10;;;1.67;;
81801;SDS011;71199;52.490;5.448;2023-08-07T00:31:53;5.10;;;1.80;;
81801;SDS011;71199;52.490;5.448;2023-08-07T00:34:18;6.43;;;1.70;;
81801;SDS011;71199;52.490;5.448;2023-08-07T00:36:44;9.30;;;2.22;;
81801;SDS011;71199;52.490;5.448;2023-08-07T00:39:09;6.50;;;1.70;;
81801;SDS011;71199;52.490;5.448;2023-08-07T00:41:34;5.63;;;1.55;;
81801;SDS011;71199;52.490;5.448;2023-08-07T00:44:00;7.88;;;1.67;;
81801;SDS011;71199;52.490;5.448;2023-08-07T00:46:26;6.50;;;1.83;;
81801;SDS011;71199;52.490;5.448;2023-08-07T00:51:19;13.48;;;2.25;;
81801;SDS011;71199;52.490;5.448;2023-08-07T00:53:45;11.52;;;2.60;;
81801;SDS011;71199;52.490;5.448;2023-08-07T00:56:13;9.90;;;2.47;;
81801;SDS011;71199;52.490;5.448;2023-08-07T00:58:38;7.90;;;1.83;;
81801;SDS011;71199;52.490;5.448;2023-08-07T01:01:04;6.43;;;1.60;;
81801;SDS011;71199;52.490;5.448;2023-08-07T01:03:30;9.57;;;2.08;;
81801;SDS011;71199;52.490;5.448;2023-08-07T01:05:56;7.05;;;1.90;;
81801;SDS011;71199;52.490;5.448;2023-08-07T01:08:22;9.85;;;2.53;;
81801;SDS011;71199;52.490;5.448;2023-08-07T01:11:24;9.00;;;1.98;;
81801;SDS011;71199;52.490;5.448;2023-08-07T01:16:16;5.43;;;1.70;;
81801;SDS011;71199;52.490;5.448;2023-08-07T01:18:46;6.35;;;2.03;;
81801;SDS011;71199;52.490;5.448;2023-08-07T01:21:17;10.73;;;2.05;;
81801;SDS011;71199;52.490;5.448;2023-08-07T01:23:44;5.88;;;1.90;;
81801;SDS011;71199;52.490;5.448;2023-08-07T01:26:13;8.75;;;2.38;;
81801;SDS011;71199;52.490;5.448;2023-08-07T01:28:41;5.97;;;2.00;;
81801;SDS011;71199;52.490;5.448;2023-08-07T01:31:11;7.40;;;2.13;;
81801;SDS011;71199;52.490;5.448;2023-08-07T01:33:47;7.15;;;2.00;;
81801;SDS011;71199;52.490;5.448;2023-08-07T01:36:18;6.43;;;2.00;;
81801;SDS011;71199;52.490;5.448;2023-08-07T01:38:43;9.75;;;2.20;;
81801;SDS011;71199;52.490;5.448;2023-08-07T01:41:11;11.98;;;2.63;;
81801;SDS011;71199;52.490;5.448;2023-08-07T01:43:36;12.60;;;2.60;;
81801;SDS011;71199;52.490;5.448;2023-08-07T01:46:02;10.95;;;2.65;;
81801;SDS011;71199;52.490;5.448;2023-08-07T01:48:28;8.75;;;3.00;;
81801;SDS011;71199;52.490;5.448;2023-08-07T01:50:53;9.73;;;2.30;;
81801;SDS011;71199;52.490;5.448;2023-08-07T01:53:19;7.10;;;2.25;;
81801;SDS011;71199;52.490;5.448;2023-08-07T01:55:45;14.38;;;3.20;;
81801;SDS011;71199;52.490;5.448;2023-08-07T01:58:10;8.00;;;2.23;;
81801;SDS011;71199;52.490;5.448;2023-08-07T02:00:36;8.80;;;2.73;;
81801;SDS011;71199;52.490;5.448;2023-08-07T02:03:01;8.93;;;2.63;;
81801;SDS011;71199;52.490;5.448;2023-08-07T02:05:26;9.40;;;2.67;;
81801;SDS011;71199;52.490;5.448;2023-08-07T02:07:52;13.00;;;3.47;;
81801;SDS011;71199;52.490;5.448;2023-08-07T02:10:17;9.90;;;3.17;;
81801;SDS011;71199;52.490;5.448;2023-08-07T02:12:42;11.73;;;2.50;;
81801;SDS011;71199;52.490;5.448;2023-08-07T02:15:08;9.13;;;2.83;;
81801;SDS011;71199;52.490;5.448;2023-08-07T02:17:34;5.97;;;3.20;;
81801;SDS011;71199;52.490;5.448;2023-08-07T02:20:00;13.25;;;4.00;;
81801;SDS011;71199;52.490;5.448;2023-08-07T02:22:26;11.05;;;2.90;;
81801;SDS011;71199;52.490;5.448;2023-08-07T02:24:51;13.38;;;3.45;;
81801;SDS011;71199;52.490;5.448;2023-08-07T02:27:17;14.53;;;3.33;;
81801;SDS011;71199;52.490;5.448;2023-08-07T02:29:42;9.98;;;2.83;;
81801;SDS011;71199;52.490;5.448;2023-08-07T02:32:07;16.27;;;3.27;;
81801;SDS011;71199;52.490;5.448;2023-08-07T02:34:33;8.80;;;2.60;;
81801;SDS011;71199;52.490;5.448;2023-08-07T02:36:58;13.30;;;3.47;;
81801;SDS011;71199;52.490;5.448;2023-08-07T02:39:24;17.83;;;3.67;;
81801;SDS011;71199;52.490;5.448;2023-08-07T02:41:50;8.48;;;2.75;;
81801;SDS011;71199;52.490;5.448;2023-08-07T02:44:16;13.43;;;2.92;;
81801;SDS011;71199;52.490;5.448;2023-08-07T02:46:42;14.02;;;3.17;;
81801;SDS011;71199;52.490;5.448;2023-08-07T02:49:08;11.85;;;2.80;;
81801;SDS011;71199;52.490;5.448;2023-08-07T02:51:33;9.75;;;2.95;;
81801;SDS011;71199;52.490;5.448;2023-08-07T02:53:59;9.07;;;2.97;;
81801;SDS011;71199;52.490;5.448;2023-08-07T02:56:24;16.07;;;3.30;;
81801;SDS011;71199;52.490;5.448;2023-08-07T02:58:49;9.90;;;2.70;;
81801;SDS011;71199;52.490;5.448;2023-08-07T03:01:15;12.67;;;3.63;;
81801;SDS011;71199;52.490;5.448;2023-08-07T03:03:40;13.03;;;2.90;;
81801;SDS011;71199;52.490;5.448;2023-08-07T03:06:05;7.53;;;3.40;;
81801;SDS011;71199;52.490;5.448;2023-08-07T03:08:31;11.37;;;3.00;;
81801;SDS011;71199;52.490;5.448;2023-08-07T03:10:56;15.63;;;3.63;;
81801;SDS011;71199;52.490;5.448;2023-08-07T03:13:23;11.70;;;2.90;;
81801;SDS011;71199;52.490;5.448;2023-08-07T03:15:49;14.23;;;3.10;;
81801;SDS011;71199;52.490;5.448;2023-08-07T03:18:18;10.00;;;2.88;;
81801;SDS011;71199;52.490;5.448;2023-08-07T03:20:44;8.25;;;3.30;;
81801;SDS011;71199;52.490;5.448;2023-08-07T03:23:09;9.38;;;2.33;;
81801;SDS011;71199;52.490;5.448;2023-08-07T03:25:35;9.95;;;3.03;;
81801;SDS011;71199;52.490;5.448;2023-08-07T03:28:01;14.48;;;3.78;;
81801;SDS011;71199;52.490;5.448;2023-08-07T03:30:26;11.03;;;3.50;;
81801;SDS011;71199;52.490;5.448;2023-08-07T03:32:52;10.32;;;3.08;;
81801;SDS011;71199;52.490;5.448;2023-08-07T03:35:17;14.20;;;3.58;;
81801;SDS011;71199;52.490;5.448;2023-08-07T03:37:42;9.70;;;4.00;;
81801;SDS011;71199;52.490;5.448;2023-08-07T03:40:08;16.38;;;3.30;;
81801;SDS011;71199;52.490;5.448;2023-08-07T03:42:33;11.52;;;3.20;;
81801;SDS011;71199;52.490;5.448;2023-08-07T03:44:59;13.27;;;3.30;;
81801;SDS011;71199;52.490;5.448;2023-08-07T03:47:24;8.48;;;2.50;;
81801;SDS011;71199;52.490;5.448;2023-08-07T03:49:49;14.23;;;3.60;;
81801;SDS011;71199;52.490;5.448;2023-08-07T03:52:15;7.37;;;2.43;;
81801;SDS011;71199;52.490;5.448;2023-08-07T03:54:40;14.35;;;3.20;;
81801;SDS011;71199;52.490;5.448;2023-08-07T03:57:06;12.43;;;3.27;;
81801;SDS011;71199;52.490;5.448;2023-08-07T03:59:33;11.73;;;3.35;;
81801;SDS011;71199;52.490;5.448;2023-08-07T04:01:58;8.25;;;3.83;;
81801;SDS011;71199;52.490;5.448;2023-08-07T04:04:24;15.47;;;4.67;;
81801;SDS011;71199;52.490;5.448;2023-08-07T04:06:49;10.07;;;2.67;;
81801;SDS011;71199;52.490;5.448;2023-08-07T04:09:15;11.27;;;3.28;;
81801;SDS011;71199;52.490;5.448;2023-08-07T04:11:42;13.52;;;3.28;;
81801;SDS011;71199;52.490;5.448;2023-08-07T04:14:07;11.30;;;3.03;;
81801;SDS011;71199;52.490;5.448;2023-08-07T04:16:32;20.40;;;4.93;;
81801;SDS011;71199;52.490;5.448;2023-08-07T04:18:58;14.00;;;3.63;;
81801;SDS011;71199;52.490;5.448;2023-08-07T04:21:23;12.82;;;3.65;;
81801;SDS011;71199;52.490;5.448;2023-08-07T04:23:49;12.80;;;3.80;;
81801;SDS011;71199;52.490;5.448;2023-08-07T04:26:14;19.83;;;4.93;;
81801;SDS011;71199;52.490;5.448;2023-08-07T04:28:40;15.68;;;3.45;;
81801;SDS011;71199;52.490;5.448;2023-08-07T04:31:05;19.85;;;3.92;;
81801;SDS011;71199;52.490;5.448;2023-08-07T04:33:30;13.97;;;3.27;;
81801;SDS011;71199;52.490;5.448;2023-08-07T04:35:56;13.73;;;3.30;;
81801;SDS011;71199;52.490;5.448;2023-08-07T04:38:21;14.10;;;3.63;;
81801;SDS011;71199;52.490;5.448;2023-08-07T04:40:47;9.30;;;2.60;;
81801;SDS011;71199;52.490;5.448;2023-08-07T04:43:14;9.75;;;3.97;;
81801;SDS011;71199;52.490;5.448;2023-08-07T04:45:41;6.72;;;3.00;;
81801;SDS011;71199;52.490;5.448;2023-08-07T04:48:07;17.55;;;4.15;;
81801;SDS011;71199;52.490;5.448;2023-08-07T04:50:33;13.20;;;3.30;;
81801;SDS011;71199;52.490;5.448;2023-08-07T04:52:58;14.68;;;4.53;;
81801;SDS011;71199;52.490;5.448;2023-08-07T04:55:24;15.57;;;3.37;;
81801;SDS011;71199;52.490;5.448;2023-08-07T04:57:50;16.05;;;3.70;;
81801;SDS011;71199;52.490;5.448;2023-08-07T05:00:19;10.23;;;3.83;;
81801;SDS011;71199;52.490;5.448;2023-08-07T05:02:44;24.52;;;5.38;;
81801;SDS011;71199;52.490;5.448;2023-08-07T05:05:10;11.10;;;3.27;;
81801;SDS011;71199;52.490;5.448;2023-08-07T05:07:35;18.10;;;3.40;;
81801;SDS011;71199;52.490;5.448;2023-08-07T05:10:01;9.52;;;3.22;;
81801;SDS011;71199;52.490;5.448;2023-08-07T05:12:27;11.43;;;3.50;;
81801;SDS011;71199;52.490;5.448;2023-08-07T05:14:53;10.88;;;3.53;;
81801;SDS011;71199;52.490;5.448;2023-08-07T05:17:19;18.23;;;4.25;;
81801;SDS011;71199;52.490;5.448;2023-08-07T05:19:44;19.00;;;4.03;;
81801;SDS011;71199;52.490;5.448;2023-08-07T05:22:09;15.90;;;3.30;;
81801;SDS011;71199;52.490;5.448;2023-08-07T05:24:35;13.55;;;3.05;;
81801;SDS011;71199;52.490;5.448;2023-08-07T05:27:04;17.92;;;3.88;;
81801;SDS011;71199;52.490;5.448;2023-08-07T05:31:56;14.83;;;3.80;;
81801;SDS011;71199;52.490;5.448;2023-08-07T05:34:21;15.23;;;3.50;;
81801;SDS011;71199;52.490;5.448;2023-08-07T05:36:46;15.30;;;4.07;;
81801;SDS011;71199;52.490;5.448;2023-08-07T05:39:12;11.73;;;3.20;;
81801;SDS011;71199;52.490;5.448;2023-08-07T05:41:38;15.35;;;4.70;;
81801;SDS011;71199;52.490;5.448;2023-08-07T05:44:04;15.32;;;3.65;;
81801;SDS011;71199;52.490;5.448;2023-08-07T05:46:30;15.25;;;4.15;;
81801;SDS011;71199;52.490;5.448;2023-08-07T05:48:56;9.13;;;4.60;;
81801;SDS011;71199;52.490;5.448;2023-08-07T05:51:21;12.25;;;3.50;;
81801;SDS011;71199;52.490;5.448;2023-08-07T05:53:46;10.30;;;3.47;;
81801;SDS011;71199;52.490;5.448;2023-08-07T05:56:12;12.20;;;2.50;;
81801;SDS011;71199;52.490;5.448;2023-08-07T05:58:37;11.00;;;2.80;;
81801;SDS011;71199;52.490;5.448;2023-08-07T06:01:02;12.80;;;3.17;;
81801;SDS011;71199;52.490;5.448;2023-08-07T06:03:28;10.57;;;2.53;;
81801;SDS011;71199;52.490;5.448;2023-08-07T06:05:53;6.40;;;2.57;;
81801;SDS011;71199;52.490;5.448;2023-08-07T06:08:19;12.80;;;2.72;;
81801;SDS011;71199;52.490;5.448;2023-08-07T06:10:44;10.60;;;2.83;;
81801;SDS011;71199;52.490;5.448;2023-08-07T06:13:09;8.88;;;2.83;;
81801;SDS011;71199;52.490;5.448;2023-08-07T06:15:35;8.82;;;2.53;;
81801;SDS011;71199;52.490;5.448;2023-08-07T06:18:00;11.75;;;2.80;;
81801;SDS011;71199;52.490;5.448;2023-08-07T06:20:26;13.20;;;2.67;;
81801;SDS011;71199;52.490;5.448;2023-08-07T06:22:51;11.13;;;3.90;;
81801;SDS011;71199;52.490;5.448;2023-08-07T06:25:16;10.35;;;3.08;;
81801;SDS011;71199;52.490;5.448;2023-08-07T06:27:44;11.82;;;2.60;;
81801;SDS011;71199;52.490;5.448;2023-08-07T06:30:10;9.13;;;3.20;;
81801;SDS011;71199;52.490;5.448;2023-08-07T06:32:36;9.68;;;2.78;;
81801;SDS011;71199;52.490;5.448;2023-08-07T06:35:02;7.65;;;2.53;;
81801;SDS011;71199;52.490;5.448;2023-08-07T06:37:28;15.00;;;3.13;;
81801;SDS011;71199;52.490;5.448;2023-08-07T06:39:53;14.50;;;3.27;;
81801;SDS011;71199;52.490;5.448;2023-08-07T06:42:19;14.53;;;3.17;;
81801;SDS011;71199;52.490;5.448;2023-08-07T06:44:44;11.25;;;3.45;;
81801;SDS011;71199;52.490;5.448;2023-08-07T06:47:09;17.85;;;3.10;;
81801;SDS011;71199;52.490;5.448;2023-08-07T06:49:35;9.60;;;2.97;;
81801;SDS011;71199;52.490;5.448;2023-08-07T06:52:01;8.80;;;3.70;;
81801;SDS011;71199;52.490;5.448;2023-08-07T06:54:27;11.48;;;2.95;;
81801;SDS011;71199;52.490;5.448;2023-08-07T06:56:52;10.10;;;3.00;;
81801;SDS011;71199;52.490;5.448;2023-08-07T06:59:18;11.93;;;2.73;;
81801;SDS011;71199;52.490;5.448;2023-08-07T07:01:43;13.30;;;3.20;;
81801;SDS011;71199;52.490;5.448;2023-08-07T07:04:08;8.57;;;3.50;;
81801;SDS011;71199;52.490;5.448;2023-08-07T07:06:34;15.57;;;3.73;;
81801;SDS011;71199;52.490;5.448;2023-08-07T07:08:59;7.85;;;2.35;;
81801;SDS011;71199;52.490;5.448;2023-08-07T07:11:25;10.32;;;3.25;;
81801;SDS011;71199;52.490;5.448;2023-08-07T07:13:50;11.38;;;3.10;;
81801;SDS011;71199;52.490;5.448;2023-08-07T07:16:19;8.43;;;2.78;;
81801;SDS011;71199;52.490;5.448;2023-08-07T07:18:50;12.40;;;2.47;;
81801;SDS011;71199;52.490;5.448;2023-08-07T07:21:16;9.15;;;3.85;;
81801;SDS011;71199;52.490;5.448;2023-08-07T07:23:42;7.22;;;2.10;;
81801;SDS011;71199;52.490;5.448;2023-08-07T07:26:07;6.95;;;2.30;;
81801;SDS011;71199;52.490;5.448;2023-08-07T07:28:33;7.45;;;2.38;;
81801;SDS011;71199;52.490;5.448;2023-08-07T07:30:58;7.93;;;2.13;;
81801;SDS011;71199;52.490;5.448;2023-08-07T07:33:23;7.47;;;2.47;;
81801;SDS011;71199;52.490;5.448;2023-08-07T07:35:49;11.68;;;3.08;;
81801;SDS011;71199;52.490;5.448;2023-08-07T07:38:14;10.50;;;2.55;;
81801;SDS011;71199;52.490;5.448;2023-08-07T07:40:41;9.52;;;2.30;;
81801;SDS011;71199;52.490;5.448;2023-08-07T07:43:06;8.43;;;2.30;;
81801;SDS011;71199;52.490;5.448;2023-08-07T07:45:32;5.18;;;2.17;;
81801;SDS011;71199;52.490;5.448;2023-08-07T07:48:00;8.25;;;2.42;;
81801;SDS011;71199;52.490;5.448;2023-08-07T07:50:26;7.38;;;2.13;;
81801;SDS011;71199;52.490;5.448;2023-08-07T07:52:52;5.40;;;2.33;;
81801;SDS011;71199;52.490;5.448;2023-08-07T07:55:17;10.13;;;2.53;;
81801;SDS011;71199;52.490;5.448;2023-08-07T07:57:43;5.68;;;2.80;;
81801;SDS011;71199;52.490;5.448;2023-08-07T08:00:08;8.13;;;2.30;;
81801;SDS011;71199;52.490;5.448;2023-08-07T08:02:35;8.82;;;2.50;;
81801;SDS011;71199;52.490;5.448;2023-08-07T08:05:01;9.18;;;2.22;;
81801;SDS011;71199;52.490;5.448;2023-08-07T08:07:27;10.60;;;2.63;;
81801;SDS011;71199;52.490;5.448;2023-08-07T08:09:52;9.48;;;2.78;;
81801;SDS011;71199;52.490;5.448;2023-08-07T08:12:18;5.40;;;2.23;;
81801;SDS011;71199;52.490;5.448;2023-08-07T08:14:43;6.67;;;2.23;;
81801;SDS011;71199;52.490;5.448;2023-08-07T08:17:08;9.60;;;2.47;;
81801;SDS011;71199;52.490;5.448;2023-08-07T08:19:34;10.10;;;2.77;;
81801;SDS011;71199;52.490;5.448;2023-08-07T08:21:59;11.05;;;2.67;;
81801;SDS011;71199;52.490;5.448;2023-08-07T08:24:25;9.93;;;2.35;;
81801;SDS011;71199;52.490;5.448;2023-08-07T08:26:50;8.63;;;2.55;;
81801;SDS011;71199;52.490;5.448;2023-08-07T08:29:16;10.63;;;2.43;;
81801;SDS011;71199;52.490;5.448;2023-08-07T08:31:41;7.20;;;2.33;;
81801;SDS011;71199;52.490;5.448;2023-08-07T08:34:07;8.57;;;2.40;;
81801;SDS011;71199;52.490;5.448;2023-08-07T08:36:32;6.32;;;2.30;;
81801;SDS011;71199;52.490;5.448;2023-08-07T08:38:57;12.23;;;2.93;;
81801;SDS011;71199;52.490;5.448;2023-08-07T08:41:23;7.88;;;2.33;;
81801;SDS011;71199;52.490;5.448;2023-08-07T08:43:49;9.93;;;2.70;;
81801;SDS011;71199;52.490;5.448;2023-08-07T08:46:19;7.28;;;2.00;;
81801;SDS011;71199;52.490;5.448;2023-08-07T08:48:47;6.10;;;2.10;;
81801;SDS011;71199;52.490;5.448;2023-08-07T08:51:16;6.00;;;2.60;;
81801;SDS011;71199;52.490;5.448;2023-08-07T08:53:43;5.68;;;1.95;;
81801;SDS011;71199;52.490;5.448;2023-08-07T08:56:10;8.82;;;1.77;;
81801;SDS011;71199;52.490;5.448;2023-08-07T08:58:37;4.38;;;1.55;;
81801;SDS011;71199;52.490;5.448;2023-08-07T09:01:03;9.60;;;2.30;;
81801;SDS011;71199;52.490;5.448;2023-08-07T09:05:58;9.80;;;2.00;;
81801;SDS011;71199;52.490;5.448;2023-08-07T09:08:27;11.88;;;2.30;;
81801;SDS011;71199;52.490;5.448;2023-08-07T09:10:55;7.18;;;2.33;;
81801;SDS011;71199;52.490;5.448;2023-08-07T09:13:22;5.50;;;2.00;;
81801;SDS011;71199;52.490;5.448;2023-08-07T09:15:49;9.80;;;2.42;;
81801;SDS011;71199;52.490;5.448;2023-08-07T09:18:16;5.75;;;2.00;;
81801;SDS011;71199;52.490;5.448;2023-08-07T09:20:43;7.97;;;2.85;;
81801;SDS011;71199;52.490;5.448;2023-08-07T09:23:08;5.00;;;2.03;;
81801;SDS011;71199;52.490;5.448;2023-08-07T09:25:34;5.68;;;2.85;;
81801;SDS011;71199;52.490;5.448;2023-08-07T09:28:04;6.35;;;2.33;;
81801;SDS011;71199;52.490;5.448;2023-08-07T09:30:30;4.35;;;2.17;;
81801;SDS011;71199;52.490;5.448;2023-08-07T09:32:56;4.93;;;2.20;;
81801;SDS011;71199;52.490;5.448;2023-08-07T09:35:23;9.25;;;2.67;;
81801;SDS011;71199;52.490;5.448;2023-08-07T09:37:48;5.88;;;1.95;;
81801;SDS011;71199;52.490;5.448;2023-08-07T09:40:14;7.72;;;2.17;;
81801;SDS011;71199;52.490;5.448;2023-08-07T09:42:41;5.00;;;1.90;;
81801;SDS011;71199;52.490;5.448;2023-08-07T09:48:00;10.02;;;1.95;;
81801;SDS011;71199;52.490;5.448;2023-08-07T09:50:31;5.70;;;2.20;;
81801;SDS011;71199;52.490;5.448;2023-08-07T09:52:56;6.90;;;2.15;;
81801;SDS011;71199;52.490;5.448;2023-08-07T09:55:23;5.30;;;2.22;;
81801;SDS011;71199;52.490;5.448;2023-08-07T09:57:48;5.18;;;1.90;;
81801;SDS011;71199;52.490;5.448;2023-08-07T10:00:15;5.72;;;1.90;;
81801;SDS011;71199;52.490;5.448;2023-08-07T10:02:41;10.63;;;2.10;;
81801;SDS011;71199;52.490;5.448;2023-08-07T10:05:12;6.43;;;2.38;;
81801;SDS011;71199;52.490;5.448;2023-08-07T10:07:38;4.18;;;1.80;;
81801;SDS011;71199;52.490;5.448;2023-08-07T10:10:05;6.97;;;2.40;;
81801;SDS011;71199;52.490;5.448;2023-08-07T10:12:31;5.75;;;1.70;;
81801;SDS011;71199;52.490;5.448;2023-08-07T10:14:58;7.05;;;2.15;;
81801;SDS011;71199;52.490;5.448;2023-08-07T10:17:25;9.40;;;3.10;;
81801;SDS011;71199;52.490;5.448;2023-08-07T10:19:51;11.85;;;2.40;;
81801;SDS011;71199;52.490;5.448;2023-08-07T10:22:17;5.47;;;1.80;;
81801;SDS011;71199;52.490;5.448;2023-08-07T10:24:44;6.03;;;1.77;;
81801;SDS011;71199;52.490;5.448;2023-08-07T10:27:15;7.53;;;1.92;;
81801;SDS011;71199;52.490;5.448;2023-08-07T10:29:42;6.18;;;2.08;;
81801;SDS011;71199;52.490;5.448;2023-08-07T10:32:09;4.35;;;2.15;;
81801;SDS011;71199;52.490;5.448;2023-08-07T10:34:36;6.72;;;2.13;;
81801;SDS011;71199;52.490;5.448;2023-08-07T10:37:02;6.47;;;2.10;;
81801;SDS011;71199;52.490;5.448;2023-08-07T10:39:31;5.75;;;1.80;;
81801;SDS011;71199;52.490;5.448;2023-08-07T10:41:56;7.57;;;2.63;;
81801;SDS011;71199;52.490;5.448;2023-08-07T10:44:25;8.10;;;2.25;;
81801;SDS011;71199;52.490;5.448;2023-08-07T10:46:56;5.30;;;1.90;;
81801;SDS011;71199;52.490;5.448;2023-08-07T10:49:32;9.05;;;2.47;;
81801;SDS011;71199;52.490;5.448;2023-08-07T10:52:24;5.78;;;1.88;;
81801;SDS011;71199;52.490;5.448;2023-08-07T10:54:50;6.05;;;2.17;;
81801;SDS011;71199;52.490;5.448;2023-08-07T10:57:16;5.45;;;2.13;;
81801;SDS011;71199;52.490;5.448;2023-08-07T11:02:21;6.97;;;2.05;;
81801;SDS011;71199;52.490;5.448;2023-08-07T11:04:48;6.85;;;2.20;;
81801;SDS011;71199;52.490;5.448;2023-08-07T11:07:22;4.50;;;2.00;;
81801;SDS011;71199;52.490;5.448;2023-08-07T11:09:49;6.65;;;2.67;;
81801;SDS011;71199;52.490;5.448;2023-08-07T11:12:15;6.15;;;2.22;;
81801;SDS011;71199;52.490;5.448;2023-08-07T11:14:40;6.53;;;2.23;;
81801;SDS011;71199;52.490;5.448;2023-08-07T11:17:06;7.00;;;2.60;;
81801;SDS011;71199;52.490;5.448;2023-08-07T11:19:31;5.35;;;1.98;;
81801;SDS011;71199;52.490;5.448;2023-08-07T11:21:57;6.90;;;1.80;;
81801;SDS011;71199;52.490;5.448;2023-08-07T11:24:23;3.92;;;1.90;;
81801;SDS011;71199;52.490;5.448;2023-08-07T11:26:48;3.85;;;1.80;;
81801;SDS011;71199;52.490;5.448;2023-08-07T11:29:20;5.10;;;2.05;;
81801;SDS011;71199;52.490;5.448;2023-08-07T11:31:45;8.38;;;2.20;;
81801;SDS011;71199;52.490;5.448;2023-08-07T11:34:11;3.78;;;1.88;;
81801;SDS011;71199;52.490;5.448;2023-08-07T11:36:43;4.28;;;2.03;;
81801;SDS011;71199;52.490;5.448;2023-08-07T11:39:09;4.55;;;1.80;;
81801;SDS011;71199;52.490;5.448;2023-08-07T11:41:34;5.00;;;2.00;;
81801;SDS011;71199;52.490;5.448;2023-08-07T11:44:00;3.53;;;1.83;;
81801;SDS011;71199;52.490;5.448;2023-08-07T11:46:25;5.68;;;1.70;;
81801;SDS011;71199;52.490;5.448;2023-08-07T11:48:51;5.50;;;1.88;;
81801;SDS011;71199;52.490;5.448;2023-08-07T11:51:17;5.50;;;1.90;;
81801;SDS011;71199;52.490;5.448;2023-08-07T11:53:45;7.20;;;2.05;;
81801;SDS011;71199;52.490;5.448;2023-08-07T11:56:11;10.07;;;2.05;;
81801;SDS011;71199;52.490;5.448;2023-08-07T11:58:45;8.77;;;2.90;;
81801;SDS011;71199;52.490;5.448;2023-08-07T12:01:16;7.65;;;2.13;;
81801;SDS011;71199;52.490;5.448;2023-08-07T12:03:55;10.15;;;2.15;;
81801;SDS011;71199;52.490;5.448;2023-08-07T12:06:25;8.70;;;2.33;;
81801;SDS011;71199;52.490;5.448;2023-08-07T12:08:53;9.20;;;2.20;;
81801;SDS011;71199;52.490;5.448;2023-08-07T12:11:20;9.82;;;2.33;;
81801;SDS011;71199;52.490;5.448;2023-08-07T12:13:46;6.88;;;2.53;;
81801;SDS011;71199;52.490;5.448;2023-08-07T12:16:13;6.55;;;2.63;;
81801;SDS011;71199;52.490;5.448;2023-08-07T12:18:50;7.32;;;2.20;;
81801;SDS011;71199;52.490;5.448;2023-08-07T12:21:20;6.45;;;2.63;;
81801;SDS011;71199;52.490;5.448;2023-08-07T12:23:50;4.57;;;2.00;;
81801;SDS011;71199;52.490;5.448;2023-08-07T12:26:17;9.32;;;2.40;;
81801;SDS011;71199;52.490;5.448;2023-08-07T12:28:43;6.13;;;2.10;;
81801;SDS011;71199;52.490;5.448;2023-08-07T12:31:08;6.00;;;2.50;;
81801;SDS011;71199;52.490;5.448;2023-08-07T12:33:34;5.07;;;1.90;;
81801;SDS011;71199;52.490;5.448;2023-08-07T12:35:59;5.07;;;2.30;;
81801;SDS011;71199;52.490;5.448;2023-08-07T12:38:25;8.07;;;2.45;;
81801;SDS011;71199;52.490;5.448;2023-08-07T12:40:51;6.47;;;2.10;;
81801;SDS011;71199;52.490;5.448;2023-08-07T12:43:17;7.93;;;2.35;;
81801;SDS011;71199;52.490;5.448;2023-08-07T12:45:43;7.85;;;2.20;;
81801;SDS011;71199;52.490;5.448;2023-08-07T12:48:08;5.97;;;2.55;;
81801;SDS011;71199;52.490;5.448;2023-08-07T12:50:34;5.45;;;1.83;;
81801;SDS011;71199;52.490;5.448;2023-08-07T12:53:00;8.65;;;2.47;;
81801;SDS011;71199;52.490;5.448;2023-08-07T12:55:26;4.68;;;2.10;;
81801;SDS011;71199;52.490;5.448;2023-08-07T12:57:52;4.53;;;1.90;;
81801;SDS011;71199;52.490;5.448;2023-08-07T13:00:18;5.75;;;1.95;;
81801;SDS011;71199;52.490;5.448;2023-08-07T13:02:47;8.48;;;2.22;;
81801;SDS011;71199;52.490;5.448;2023-08-07T13:05:14;5.80;;;2.10;;
81801;SDS011;71199;52.490;5.448;2023-08-07T13:07:40;5.07;;;2.17;;
81801;SDS011;71199;52.490;5.448;2023-08-07T13:10:07;5.85;;;2.38;;
81801;SDS011;71199;52.490;5.448;2023-08-07T13:12:38;5.43;;;2.35;;
81801;SDS011;71199;52.490;5.448;2023-08-07T13:15:05;6.90;;;2.05;;
81801;SDS011;71199;52.490;5.448;2023-08-07T13:17:33;4.18;;;2.20;;
81801;SDS011;71199;52.490;5.448;2023-08-07T13:20:00;7.90;;;2.40;;
81801;SDS011;71199;52.490;5.448;2023-08-07T13:22:26;6.18;;;2.35;;
81801;SDS011;71199;52.490;5.448;2023-08-07T13:24:52;8.45;;;2.25;;
81801;SDS011;71199;52.490;5.448;2023-08-07T13:27:17;5.47;;;2.38;;
81801;SDS011;71199;52.490;5.448;2023-08-07T13:29:43;6.22;;;2.33;;
81801;SDS011;71199;52.490;5.448;2023-08-07T13:32:09;5.43;;;1.77;;
81801;SDS011;71199;52.490;5.448;2023-08-07T13:34:37;6.70;;;2.20;;
81801;SDS011;71199;52.490;5.448;2023-08-07T13:37:06;5.03;;;1.85;;
81801;SDS011;71199;52.490;5.448;2023-08-07T13:39:32;8.07;;;2.15;;
81801;SDS011;71199;52.490;5.448;2023-08-07T13:41:57;5.85;;;1.98;;
81801;SDS011;71199;52.490;5.448;2023-08-07T13:44:24;8.25;;;2.25;;
81801;SDS011;71199;52.490;5.448;2023-08-07T13:46:50;8.50;;;2.90;;
81801;SDS011;71199;52.490;5.448;2023-08-07T13:49:16;5.63;;;2.00;;
81801;SDS011;71199;52.490;5.448;2023-08-07T13:51:41;5.10;;;1.97;;
81801;SDS011;71199;52.490;5.448;2023-08-07T13:54:07;4.43;;;2.10;;
81801;SDS011;71199;52.490;5.448;2023-08-07T13:56:33;5.05;;;1.80;;
81801;SDS011;71199;52.490;5.448;2023-08-07T13:58:58;4.57;;;1.90;;
81801;SDS011;71199;52.490;5.448;2023-08-07T14:01:25;8.77;;;2.10;;
81801;SDS011;71199;52.490;5.448;2023-08-07T14:03:50;4.13;;;1.90;;
81801;SDS011;71199;52.490;5.448;2023-08-07T14:06:15;5.43;;;1.73;;
81801;SDS011;71199;52.490;5.448;2023-08-07T14:08:41;5.43;;;2.00;;
81801;SDS011;71199;52.490;5.448;2023-08-07T14:11:06;5.72;;;1.80;;
81801;SDS011;71199;52.490;5.448;2023-08-07T14:13:32;12.32;;;3.58;;
81801;SDS011;71199;52.490;5.448;2023-08-07T14:15:57;4.10;;;1.80;;
81801;SDS011;71199;52.490;5.448;2023-08-07T14:18:22;3.70;;;2.20;;
81801;SDS011;71199;52.490;5.448;2023-08-07T14:20:48;8.53;;;1.97;;
81801;SDS011;71199;52.490;5.448;2023-08-07T14:23:13;6.30;;;2.40;;
81801;SDS011;71199;52.490;5.448;2023-08-07T14:25:38;3.97;;;1.87;;
81801;SDS011;71199;52.490;5.448;2023-08-07T14:28:04;5.10;;;1.90;;
81801;SDS011;71199;52.490;5.448;2023-08-07T14:30:31;9.27;;;2.20;;
81801;SDS011;71199;52.490;5.448;2023-08-07T14:32:57;7.30;;;2.10;;
81801;SDS011;71199;52.490;5.448;2023-08-07T14:35:22;7.03;;;1.90;;
81801;SDS011;71199;52.490;5.448;2023-08-07T14:37:47;4.85;;;1.75;;
81801;SDS011;71199;52.490;5.448;2023-08-07T14:40:13;6.13;;;2.03;;
81801;SDS011;71199;52.490;5.448;2023-08-07T14:42:39;6.68;;;1.70;;
81801;SDS011;71199;52.490;5.448;2023-08-07T14:45:04;3.55;;;1.65;;
81801;SDS011;71199;52.490;5.448;2023-08-07T14:47:30;4.75;;;2.00;;
81801;SDS011;71199;52.490;5.448;2023-08-07T14:49:56;7.30;;;2.83;;
81801;SDS011;71199;52.490;5.448;2023-08-07T14:52:21;3.80;;;1.83;;